Portada
METAR-TAF:

METAR-TAF

Aeroports :

Dutchess County Airport

Poughkeepsie, Nova York, Estats Units d'Amèrica

latitud: 41-37-36N, longitud: 073-53-03W, altitud: 50 m

Observació

L'informe es va fer fa 13 minuts, a les 09:53 UTC
Vent calma
Temperatura -4°C
Humitat 86%
Pressió 1031 hPa
Visibilitat: 16.1 km
Cel clar

METAR: KPOU 310953Z AUTO 00000KT 10SM CLR M04/M06 A3044 RMK AO2 SLP308 I1000 T10391056

Hora: 06:06 (10:06 UTC)

Pronòstic

L'informe es va fer fa 4 hores i 42 minuts, a les 05:24 UTC
Pronòstic vàlid del 31 a les 06 UTC al 01 a les 06 UTC
Vent 2 kt amb direcció variable
Visibilitat: 10 km
Escasses núvols a una alçada de 3000 ft
A partir de les 31 a les 1600 UTC
Vent 4 kt del Sud-Est
Visibilitat: 10 km
Cel clar
A partir de les 31 a les 2200 UTC
Vent kt del Nord
Visibilitat: 10 km
Cel clar

TAF: KPOU 310524Z 3106/0106 VRB02KT P6SM FEW030 FM311600 14004KT P6SM SKC FM312200 00000KT P6SM SKC

Observacions i pronòstics meteorològics de més de 4000 aeroports (METAR i TAF).

Les estacions disponibles són els punts grocs i vermells al mapa.

Posi el ratolí al punt desitjat per veure el nom de l'estació.

Feu clic per veure les observacions i els pronòstics meteorològics.

Per canviar el mapa: feu clic els botons verds amb una creu de color negre per apropar; al botó verd amb un guió per allunyar la imatge; o en les fletxes verdes per a mapes adjacents.


METAR-TAF: